sensor_id;sensor_type;location;lat;lon;timestamp;pressure;altitude;pressure_sealevel;temperature;humidity
48555;BME280;34336;48.270;16.716;2023-05-19T00:01:38;109325.25;;;18.16;93.75
48555;BME280;34336;48.270;16.716;2023-05-19T00:04:04;109325.25;;;18.16;94.46
48555;BME280;34336;48.270;16.716;2023-05-19T00:06:32;109325.25;;;18.16;94.20
48555;BME280;34336;48.270;16.716;2023-05-19T00:09:03;109325.25;;;18.16;94.35
48555;BME280;34336;48.270;16.716;2023-05-19T00:11:30;109325.25;;;18.16;94.71
48555;BME280;34336;48.270;16.716;2023-05-19T00:13:57;109325.25;;;18.16;95.30
48555;BME280;34336;48.270;16.716;2023-05-19T00:16:25;109325.25;;;18.16;95.53
48555;BME280;34336;48.270;16.716;2023-05-19T00:18:52;109325.25;;;18.16;95.54
48555;BME280;34336;48.270;16.716;2023-05-19T00:21:19;109325.25;;;18.16;94.96
48555;BME280;34336;48.270;16.716;2023-05-19T00:23:47;109325.25;;;18.16;95.56
48555;BME280;34336;48.270;16.716;2023-05-19T00:26:13;109325.25;;;18.16;95.46
48555;BME280;34336;48.270;16.716;2023-05-19T00:28:50;109325.25;;;18.16;95.26
48555;BME280;34336;48.270;16.716;2023-05-19T00:31:16;109325.25;;;18.16;95.66
48555;BME280;34336;48.270;16.716;2023-05-19T00:33:43;109325.25;;;18.16;95.55
48555;BME280;34336;48.270;16.716;2023-05-19T00:36:10;109325.25;;;18.16;95.13
48555;BME280;34336;48.270;16.716;2023-05-19T00:38:36;109325.25;;;18.16;95.11
48555;BME280;34336;48.270;16.716;2023-05-19T00:41:03;109325.25;;;18.16;95.21
48555;BME280;34336;48.270;16.716;2023-05-19T00:43:31;109325.25;;;18.16;95.32
48555;BME280;34336;48.270;16.716;2023-05-19T00:45:59;109325.25;;;18.16;95.48
48555;BME280;34336;48.270;16.716;2023-05-19T00:48:26;109325.25;;;18.16;95.30
48555;BME280;34336;48.270;16.716;2023-05-19T00:50:54;109325.25;;;18.16;95.55
48555;BME280;34336;48.270;16.716;2023-05-19T00:53:21;109325.25;;;18.16;95.70
48555;BME280;34336;48.270;16.716;2023-05-19T00:55:48;109325.25;;;18.16;95.54
48555;BME280;34336;48.270;16.716;2023-05-19T00:58:15;109325.25;;;18.16;95.28
48555;BME280;34336;48.270;16.716;2023-05-19T01:00:42;109325.25;;;18.16;95.94
48555;BME280;34336;48.270;16.716;2023-05-19T01:03:09;109325.25;;;18.16;95.78
48555;BME280;34336;48.270;16.716;2023-05-19T01:05:41;109325.25;;;18.16;95.19
48555;BME280;34336;48.270;16.716;2023-05-19T01:08:08;109325.25;;;18.16;94.29
48555;BME280;34336;48.270;16.716;2023-05-19T01:10:35;109325.25;;;18.16;94.82
48555;BME280;34336;48.270;16.716;2023-05-19T01:13:03;109325.25;;;18.16;94.83
48555;BME280;34336;48.270;16.716;2023-05-19T01:15:36;109325.25;;;18.16;94.71
48555;BME280;34336;48.270;16.716;2023-05-19T01:18:07;109325.25;;;18.16;94.79
48555;BME280;34336;48.270;16.716;2023-05-19T01:23:50;109325.25;;;18.16;95.54
48555;BME280;34336;48.270;16.716;2023-05-19T01:26:34;109325.25;;;18.16;94.25
48555;BME280;34336;48.270;16.716;2023-05-19T01:31:16;109325.25;;;18.16;93.91
48555;BME280;34336;48.270;16.716;2023-05-19T01:33:46;109325.25;;;18.16;93.87
48555;BME280;34336;48.270;16.716;2023-05-19T01:36:14;109325.25;;;18.16;93.83
48555;BME280;34336;48.270;16.716;2023-05-19T01:38:41;109325.25;;;18.16;94.04
48555;BME280;34336;48.270;16.716;2023-05-19T01:41:08;109325.25;;;18.16;94.38
48555;BME280;34336;48.270;16.716;2023-05-19T01:43:35;109325.25;;;18.16;94.61
48555;BME280;34336;48.270;16.716;2023-05-19T01:46:02;109325.25;;;18.16;95.04
48555;BME280;34336;48.270;16.716;2023-05-19T01:48:28;109325.25;;;18.16;94.51
48555;BME280;34336;48.270;16.716;2023-05-19T01:50:56;109325.25;;;18.16;95.05
48555;BME280;34336;48.270;16.716;2023-05-19T01:53:23;109325.25;;;18.16;94.76
48555;BME280;34336;48.270;16.716;2023-05-19T01:55:55;109325.25;;;18.16;94.53
48555;BME280;34336;48.270;16.716;2023-05-19T02:11:35;109325.25;;;18.16;96.32
48555;BME280;34336;48.270;16.716;2023-05-19T02:14:38;109325.25;;;18.16;96.26
48555;BME280;34336;48.270;16.716;2023-05-19T02:16:57;109325.25;;;18.16;96.04
48555;BME280;34336;48.270;16.716;2023-05-19T02:19:25;109325.25;;;18.16;96.12
48555;BME280;34336;48.270;16.716;2023-05-19T02:21:54;109325.25;;;18.16;96.13
48555;BME280;34336;48.270;16.716;2023-05-19T02:24:20;109325.25;;;18.16;96.20
48555;BME280;34336;48.270;16.716;2023-05-19T02:26:48;109325.25;;;18.16;96.13
48555;BME280;34336;48.270;16.716;2023-05-19T02:29:17;109325.25;;;18.16;96.32
48555;BME280;34336;48.270;16.716;2023-05-19T02:31:44;109325.25;;;18.16;96.09
48555;BME280;34336;48.270;16.716;2023-05-19T02:34:10;109325.25;;;18.16;95.44
48555;BME280;34336;48.270;16.716;2023-05-19T02:36:38;109325.25;;;18.16;95.75
48555;BME280;34336;48.270;16.716;2023-05-19T02:39:07;109325.25;;;18.16;96.49
48555;BME280;34336;48.270;16.716;2023-05-19T02:41:34;109325.25;;;18.16;97.03
48555;BME280;34336;48.270;16.716;2023-05-19T02:44:01;109325.25;;;18.16;97.42
48555;BME280;34336;48.270;16.716;2023-05-19T02:46:28;109325.25;;;18.16;98.09
48555;BME280;34336;48.270;16.716;2023-05-19T02:48:55;109325.25;;;18.16;98.37
48555;BME280;34336;48.270;16.716;2023-05-19T02:51:21;109325.25;;;18.16;98.34
48555;BME280;34336;48.270;16.716;2023-05-19T02:53:48;109325.25;;;18.16;98.82
48555;BME280;34336;48.270;16.716;2023-05-19T02:56:15;109325.25;;;18.16;99.17
48555;BME280;34336;48.270;16.716;2023-05-19T02:58:42;109325.25;;;18.16;99.24
48555;BME280;34336;48.270;16.716;2023-05-19T03:01:08;109325.25;;;18.16;99.46
48555;BME280;34336;48.270;16.716;2023-05-19T03:03:36;109325.25;;;18.16;100.00
48555;BME280;34336;48.270;16.716;2023-05-19T03:06:03;109325.25;;;18.16;100.00
48555;BME280;34336;48.270;16.716;2023-05-19T03:08:30;109325.25;;;18.16;100.00
48555;BME280;34336;48.270;16.716;2023-05-19T03:10:56;109325.25;;;18.16;100.00
48555;BME280;34336;48.270;16.716;2023-05-19T03:13:23;109325.25;;;18.16;100.00
48555;BME280;34336;48.270;16.716;2023-05-19T03:15:50;109325.25;;;18.16;100.00
48555;BME280;34336;48.270;16.716;2023-05-19T03:18:16;109325.25;;;18.16;100.00
48555;BME280;34336;48.270;16.716;2023-05-19T03:20:43;109325.25;;;18.16;100.00
48555;BME280;34336;48.270;16.716;2023-05-19T03:23:10;109325.25;;;18.16;100.00
48555;BME280;34336;48.270;16.716;2023-05-19T03:25:37;109325.25;;;18.16;99.69
48555;BME280;34336;48.270;16.716;2023-05-19T03:28:03;109325.25;;;18.16;100.00
48555;BME280;34336;48.270;16.716;2023-05-19T03:30:30;109325.25;;;18.16;99.12
48555;BME280;34336;48.270;16.716;2023-05-19T03:33:10;109325.25;;;18.16;98.14
48555;BME280;34336;48.270;16.716;2023-05-19T03:35:39;109325.25;;;18.16;97.23
48555;BME280;34336;48.270;16.716;2023-05-19T03:38:05;109325.25;;;18.16;96.71
48555;BME280;34336;48.270;16.716;2023-05-19T03:40:33;109325.25;;;18.16;95.66
48555;BME280;34336;48.270;16.716;2023-05-19T03:43:04;109325.25;;;18.16;95.41
48555;BME280;34336;48.270;16.716;2023-05-19T03:45:34;109325.25;;;18.16;95.11
48555;BME280;34336;48.270;16.716;2023-05-19T03:48:15;109325.25;;;18.16;94.23
48555;BME280;34336;48.270;16.716;2023-05-19T03:51:07;109325.25;;;18.16;93.11
48555;BME280;34336;48.270;16.716;2023-05-19T03:53:34;109325.25;;;18.16;92.83
48555;BME280;34336;48.270;16.716;2023-05-19T03:56:01;109325.25;;;18.16;91.71
48555;BME280;34336;48.270;16.716;2023-05-19T03:58:27;109325.25;;;18.16;91.19
48555;BME280;34336;48.270;16.716;2023-05-19T04:00:55;109325.25;;;18.16;90.18
48555;BME280;34336;48.270;16.716;2023-05-19T04:03:22;109325.25;;;18.16;89.74
48555;BME280;34336;48.270;16.716;2023-05-19T04:05:49;109325.25;;;18.16;88.98
48555;BME280;34336;48.270;16.716;2023-05-19T04:08:17;109325.25;;;18.16;87.41
48555;BME280;34336;48.270;16.716;2023-05-19T04:10:43;109325.25;;;18.16;86.96
48555;BME280;34336;48.270;16.716;2023-05-19T04:13:10;109325.25;;;18.16;86.67
48555;BME280;34336;48.270;16.716;2023-05-19T04:15:36;109325.25;;;18.16;85.80
48555;BME280;34336;48.270;16.716;2023-05-19T04:18:03;109325.25;;;18.16;85.55
48555;BME280;34336;48.270;16.716;2023-05-19T04:20:31;109325.25;;;18.16;85.53
48555;BME280;34336;48.270;16.716;2023-05-19T04:22:58;109325.25;;;18.16;86.04
48555;BME280;34336;48.270;16.716;2023-05-19T04:25:24;109325.25;;;18.16;85.96
48555;BME280;34336;48.270;16.716;2023-05-19T04:27:53;109325.25;;;18.16;85.90
48555;BME280;34336;48.270;16.716;2023-05-19T04:30:23;109325.25;;;18.16;85.07
48555;BME280;34336;48.270;16.716;2023-05-19T04:32:50;109325.25;;;18.16;84.48
48555;BME280;34336;48.270;16.716;2023-05-19T04:35:17;109325.25;;;18.16;84.00
48555;BME280;34336;48.270;16.716;2023-05-19T04:37:46;109325.25;;;18.16;83.18
48555;BME280;34336;48.270;16.716;2023-05-19T04:40:15;109325.25;;;18.16;83.44
48555;BME280;34336;48.270;16.716;2023-05-19T04:42:42;109325.25;;;18.16;83.41
48555;BME280;34336;48.270;16.716;2023-05-19T04:45:12;109325.25;;;18.16;83.00
48555;BME280;34336;48.270;16.716;2023-05-19T04:47:42;109325.25;;;18.16;83.47
48555;BME280;34336;48.270;16.716;2023-05-19T04:50:09;109325.25;;;18.16;81.89
48555;BME280;34336;48.270;16.716;2023-05-19T04:52:36;109325.25;;;18.16;80.83
48555;BME280;34336;48.270;16.716;2023-05-19T04:55:04;109325.25;;;18.16;79.15
48555;BME280;34336;48.270;16.716;2023-05-19T04:57:31;109325.25;;;18.16;77.75
48555;BME280;34336;48.270;16.716;2023-05-19T04:59:58;109325.25;;;18.16;74.49
48555;BME280;34336;48.270;16.716;2023-05-19T05:02:35;109325.25;;;18.16;71.59
48555;BME280;34336;48.270;16.716;2023-05-19T05:05:02;109325.25;;;18.16;71.35
48555;BME280;34336;48.270;16.716;2023-05-19T05:07:30;109325.25;;;18.16;69.43
48555;BME280;34336;48.270;16.716;2023-05-19T05:10:00;109325.25;;;18.16;68.65
48555;BME280;34336;48.270;16.716;2023-05-19T05:12:28;109325.25;;;18.16;67.47
48555;BME280;34336;48.270;16.716;2023-05-19T05:14:55;109325.25;;;18.16;68.58
48555;BME280;34336;48.270;16.716;2023-05-19T05:17:21;109325.25;;;18.16;67.37
48555;BME280;34336;48.270;16.716;2023-05-19T05:19:48;109325.25;;;18.16;67.23
48555;BME280;34336;48.270;16.716;2023-05-19T05:22:15;109325.25;;;18.16;65.99
48555;BME280;34336;48.270;16.716;2023-05-19T05:24:42;109325.25;;;18.16;64.59
48555;BME280;34336;48.270;16.716;2023-05-19T05:27:09;109325.25;;;18.16;65.07
48555;BME280;34336;48.270;16.716;2023-05-19T05:29:36;109325.25;;;18.16;64.53
48555;BME280;34336;48.270;16.716;2023-05-19T05:32:04;109325.25;;;18.16;62.34
48555;BME280;34336;48.270;16.716;2023-05-19T05:34:31;109325.25;;;18.16;60.15
48555;BME280;34336;48.270;16.716;2023-05-19T05:36:58;109325.25;;;18.16;63.56
48555;BME280;34336;48.270;16.716;2023-05-19T05:39:24;109325.25;;;18.16;63.42
48555;BME280;34336;48.270;16.716;2023-05-19T05:41:53;109325.25;;;18.16;65.74
48555;BME280;34336;48.270;16.716;2023-05-19T05:44:21;109325.25;;;18.16;65.15
48555;BME280;34336;48.270;16.716;2023-05-19T05:46:48;109325.25;;;18.16;65.92
48555;BME280;34336;48.270;16.716;2023-05-19T05:49:16;109325.25;;;18.16;65.68
48555;BME280;34336;48.270;16.716;2023-05-19T05:51:44;109325.25;;;18.16;66.17
48555;BME280;34336;48.270;16.716;2023-05-19T05:54:27;109325.25;;;18.16;66.46
48555;BME280;34336;48.270;16.716;2023-05-19T05:56:54;109325.25;;;18.16;65.76
48555;BME280;34336;48.270;16.716;2023-05-19T05:59:21;109325.25;;;18.16;67.69
48555;BME280;34336;48.270;16.716;2023-05-19T06:01:48;109325.25;;;18.16;66.81
48555;BME280;34336;48.270;16.716;2023-05-19T06:04:16;109325.25;;;18.16;65.92
48555;BME280;34336;48.270;16.716;2023-05-19T06:06:43;109325.25;;;18.16;64.82
48555;BME280;34336;48.270;16.716;2023-05-19T06:09:12;109325.25;;;18.16;66.13
48555;BME280;34336;48.270;16.716;2023-05-19T06:11:39;109325.25;;;18.16;63.74
48555;BME280;34336;48.270;16.716;2023-05-19T06:14:05;109325.25;;;18.16;63.20
48555;BME280;34336;48.270;16.716;2023-05-19T06:16:52;109325.25;;;18.16;61.99
48555;BME280;34336;48.270;16.716;2023-05-19T06:19:19;109325.25;;;18.16;63.49
48555;BME280;34336;48.270;16.716;2023-05-19T06:21:46;109325.25;;;18.16;63.01
48555;BME280;34336;48.270;16.716;2023-05-19T06:24:13;109325.25;;;18.16;61.36
48555;BME280;34336;48.270;16.716;2023-05-19T06:26:40;109325.25;;;18.16;60.18
48555;BME280;34336;48.270;16.716;2023-05-19T06:29:07;109325.25;;;18.16;57.41
48555;BME280;34336;48.270;16.716;2023-05-19T06:31:33;109325.25;;;18.16;56.79
48555;BME280;34336;48.270;16.716;2023-05-19T06:34:19;109325.25;;;18.16;57.49
48555;BME280;34336;48.270;16.716;2023-05-19T06:36:46;109325.25;;;18.16;59.24
48555;BME280;34336;48.270;16.716;2023-05-19T06:39:14;109325.25;;;18.16;59.48
48555;BME280;34336;48.270;16.716;2023-05-19T06:41:40;109325.25;;;18.16;57.93
48555;BME280;34336;48.270;16.716;2023-05-19T06:44:07;109325.25;;;18.16;58.53
48555;BME280;34336;48.270;16.716;2023-05-19T06:46:36;109325.25;;;18.16;54.91
48555;BME280;34336;48.270;16.716;2023-05-19T06:49:03;109325.25;;;18.16;53.10
48555;BME280;34336;48.270;16.716;2023-05-19T06:51:35;109325.25;;;18.16;54.08
48555;BME280;34336;48.270;16.716;2023-05-19T06:54:02;109325.25;;;18.16;55.69
48555;BME280;34336;48.270;16.716;2023-05-19T06:56:29;109325.25;;;18.16;51.94
48555;BME280;34336;48.270;16.716;2023-05-19T06:58:55;109325.25;;;18.16;51.09
48555;BME280;34336;48.270;16.716;2023-05-19T07:01:28;109325.25;;;18.16;51.97
48555;BME280;34336;48.270;16.716;2023-05-19T07:03:57;109325.25;;;18.16;54.53
48555;BME280;34336;48.270;16.716;2023-05-19T07:06:23;109325.25;;;18.16;57.94
48555;BME280;34336;48.270;16.716;2023-05-19T07:08:51;109325.25;;;18.16;55.06
48555;BME280;34336;48.270;16.716;2023-05-19T07:11:18;109325.25;;;18.16;57.88
48555;BME280;34336;48.270;16.716;2023-05-19T07:13:46;109325.25;;;18.16;59.13
48555;BME280;34336;48.270;16.716;2023-05-19T07:16:18;109325.25;;;18.16;60.13
48555;BME280;34336;48.270;16.716;2023-05-19T07:18:45;109325.25;;;18.16;60.87
48555;BME280;34336;48.270;16.716;2023-05-19T07:21:11;109325.25;;;18.16;60.15
48555;BME280;34336;48.270;16.716;2023-05-19T07:23:38;109325.25;;;18.16;57.94
48555;BME280;34336;48.270;16.716;2023-05-19T07:26:05;109325.25;;;18.16;57.28
48555;BME280;34336;48.270;16.716;2023-05-19T07:28:31;109325.25;;;18.16;58.47
48555;BME280;34336;48.270;16.716;2023-05-19T07:30:59;109325.25;;;18.16;57.58
48555;BME280;34336;48.270;16.716;2023-05-19T07:33:26;109325.25;;;18.16;56.32
48555;BME280;34336;48.270;16.716;2023-05-19T07:35:53;109325.25;;;18.16;56.33
48555;BME280;34336;48.270;16.716;2023-05-19T07:38:19;109325.25;;;18.16;59.55
48555;BME280;34336;48.270;16.716;2023-05-19T07:40:46;109325.25;;;18.16;57.68
48555;BME280;34336;48.270;16.716;2023-05-19T07:43:13;109325.25;;;18.16;57.57
48555;BME280;34336;48.270;16.716;2023-05-19T07:45:39;109325.25;;;18.16;57.01
48555;BME280;34336;48.270;16.716;2023-05-19T07:48:06;109325.25;;;18.16;55.63
48555;BME280;34336;48.270;16.716;2023-05-19T07:50:33;109325.25;;;18.16;54.77
48555;BME280;34336;48.270;16.716;2023-05-19T07:53:00;109325.25;;;18.16;53.04
48555;BME280;34336;48.270;16.716;2023-05-19T07:55:26;109325.25;;;18.16;52.04
48555;BME280;34336;48.270;16.716;2023-05-19T07:57:53;109325.25;;;18.16;52.51
48555;BME280;34336;48.270;16.716;2023-05-19T08:00:19;109325.25;;;18.16;51.31
48555;BME280;34336;48.270;16.716;2023-05-19T08:02:46;109325.25;;;18.16;50.35
48555;BME280;34336;48.270;16.716;2023-05-19T08:05:13;109325.25;;;18.16;51.51
48555;BME280;34336;48.270;16.716;2023-05-19T08:07:40;109325.25;;;18.16;48.45
48555;BME280;34336;48.270;16.716;2023-05-19T08:10:06;109325.25;;;18.16;50.13
48555;BME280;34336;48.270;16.716;2023-05-19T08:12:33;109325.25;;;18.16;52.54
48555;BME280;34336;48.270;16.716;2023-05-19T08:15:00;109325.25;;;18.16;53.02
48555;BME280;34336;48.270;16.716;2023-05-19T08:17:27;109325.25;;;18.16;51.07
48555;BME280;34336;48.270;16.716;2023-05-19T08:19:54;109325.25;;;18.16;54.78
48555;BME280;34336;48.270;16.716;2023-05-19T08:22:20;109325.25;;;18.16;53.48
48555;BME280;34336;48.270;16.716;2023-05-19T08:24:47;109325.25;;;18.16;55.82
48555;BME280;34336;48.270;16.716;2023-05-19T08:27:15;109325.25;;;18.16;56.96
48555;BME280;34336;48.270;16.716;2023-05-19T08:29:42;109325.25;;;18.16;55.75
48555;BME280;34336;48.270;16.716;2023-05-19T08:32:08;109325.25;;;18.16;55.82
48555;BME280;34336;48.270;16.716;2023-05-19T08:34:38;109325.25;;;18.16;55.44
48555;BME280;34336;48.270;16.716;2023-05-19T08:37:05;109325.25;;;18.16;54.54
48555;BME280;34336;48.270;16.716;2023-05-19T08:39:32;109325.25;;;18.16;55.43
48555;BME280;34336;48.270;16.716;2023-05-19T08:42:00;109325.25;;;18.16;53.68
48555;BME280;34336;48.270;16.716;2023-05-19T08:44:27;109325.25;;;18.16;53.95
48555;BME280;34336;48.270;16.716;2023-05-19T08:46:56;109325.25;;;18.16;56.78
48555;BME280;34336;48.270;16.716;2023-05-19T08:49:26;109325.25;;;18.16;57.54
48555;BME280;34336;48.270;16.716;2023-05-19T08:54:27;109325.25;;;18.16;55.41
48555;BME280;34336;48.270;16.716;2023-05-19T08:56:55;109325.25;;;18.16;53.36
48555;BME280;34336;48.270;16.716;2023-05-19T08:59:22;109325.25;;;18.16;54.83
48555;BME280;34336;48.270;16.716;2023-05-19T09:01:49;109325.25;;;18.16;53.23
48555;BME280;34336;48.270;16.716;2023-05-19T09:04:16;109325.25;;;18.16;53.80
48555;BME280;34336;48.270;16.716;2023-05-19T09:06:43;109325.25;;;18.16;53.58
48555;BME280;34336;48.270;16.716;2023-05-19T09:09:10;109325.25;;;18.16;54.16
48555;BME280;34336;48.270;16.716;2023-05-19T09:11:37;109325.25;;;18.16;50.38
48555;BME280;34336;48.270;16.716;2023-05-19T09:14:04;109325.25;;;18.16;55.24
48555;BME280;34336;48.270;16.716;2023-05-19T09:16:31;109325.25;;;18.16;52.20
48555;BME280;34336;48.270;16.716;2023-05-19T09:18:59;109325.25;;;18.16;49.35
48555;BME280;34336;48.270;16.716;2023-05-19T09:21:27;109325.25;;;18.16;50.22
48555;BME280;34336;48.270;16.716;2023-05-19T09:24:05;109325.25;;;18.16;49.36
48555;BME280;34336;48.270;16.716;2023-05-19T09:26:39;109325.25;;;18.16;51.78
48555;BME280;34336;48.270;16.716;2023-05-19T09:29:12;109325.25;;;18.16;51.65
48555;BME280;34336;48.270;16.716;2023-05-19T09:31:45;109325.25;;;18.16;52.82
48555;BME280;34336;48.270;16.716;2023-05-19T09:34:12;109325.25;;;18.16;52.11
48555;BME280;34336;48.270;16.716;2023-05-19T09:36:39;109325.25;;;18.16;51.18
48555;BME280;34336;48.270;16.716;2023-05-19T09:39:13;109325.25;;;18.16;50.89
48555;BME280;34336;48.270;16.716;2023-05-19T09:41:41;109325.25;;;18.16;52.02
48555;BME280;34336;48.270;16.716;2023-05-19T09:44:11;109325.25;;;18.16;50.36
48555;BME280;34336;48.270;16.716;2023-05-19T09:46:37;109325.25;;;18.16;52.83
48555;BME280;34336;48.270;16.716;2023-05-19T09:49:12;109325.25;;;18.16;53.73
48555;BME280;34336;48.270;16.716;2023-05-19T09:51:40;109325.25;;;18.16;54.81
48555;BME280;34336;48.270;16.716;2023-05-19T09:54:06;109325.25;;;18.16;55.21
48555;BME280;34336;48.270;16.716;2023-05-19T09:56:35;109325.25;;;18.16;57.96
48555;BME280;34336;48.270;16.716;2023-05-19T09:59:02;109325.25;;;18.16;58.02
48555;BME280;34336;48.270;16.716;2023-05-19T10:01:31;109325.25;;;18.16;58.36
48555;BME280;34336;48.270;16.716;2023-05-19T10:04:02;109325.25;;;18.16;58.65
48555;BME280;34336;48.270;16.716;2023-05-19T10:06:31;109325.25;;;18.16;57.86
48555;BME280;34336;48.270;16.716;2023-05-19T10:08:58;109325.25;;;18.16;59.87
48555;BME280;34336;48.270;16.716;2023-05-19T10:11:25;109325.25;;;18.16;57.70
48555;BME280;34336;48.270;16.716;2023-05-19T10:13:52;109325.25;;;18.16;58.14
48555;BME280;34336;48.270;16.716;2023-05-19T10:16:19;109325.25;;;18.16;57.37
48555;BME280;34336;48.270;16.716;2023-05-19T10:18:48;109325.25;;;18.16;56.67
48555;BME280;34336;48.270;16.716;2023-05-19T10:21:15;109325.25;;;18.16;56.21
48555;BME280;34336;48.270;16.716;2023-05-19T10:23:41;109325.25;;;18.16;57.19
48555;BME280;34336;48.270;16.716;2023-05-19T10:26:08;109325.25;;;18.16;56.84
48555;BME280;34336;48.270;16.716;2023-05-19T10:28:36;109325.25;;;18.16;57.55
48555;BME280;34336;48.270;16.716;2023-05-19T10:31:05;109325.25;;;18.16;58.95
48555;BME280;34336;48.270;16.716;2023-05-19T10:38:57;109325.25;;;18.16;59.39
48555;BME280;34336;48.270;16.716;2023-05-19T10:42:00;109325.25;;;18.16;58.07
48555;BME280;34336;48.270;16.716;2023-05-19T10:44:22;109325.25;;;18.16;60.33
48555;BME280;34336;48.270;16.716;2023-05-19T10:46:50;109325.25;;;18.16;59.89
48555;BME280;34336;48.270;16.716;2023-05-19T10:49:19;109325.25;;;18.16;60.84
48555;BME280;34336;48.270;16.716;2023-05-19T10:51:47;109325.25;;;18.16;58.51
48555;BME280;34336;48.270;16.716;2023-05-19T10:54:14;109325.25;;;18.16;59.28
48555;BME280;34336;48.270;16.716;2023-05-19T10:56:43;109325.25;;;18.16;58.57
48555;BME280;34336;48.270;16.716;2023-05-19T10:59:32;109325.25;;;18.16;58.74
48555;BME280;34336;48.270;16.716;2023-05-19T11:02:05;109325.25;;;18.16;57.32
48555;BME280;34336;48.270;16.716;2023-05-19T11:04:38;109325.25;;;18.16;61.60
48555;BME280;34336;48.270;16.716;2023-05-19T11:07:07;109325.25;;;18.16;61.21
48555;BME280;34336;48.270;16.716;2023-05-19T11:09:40;109325.25;;;18.16;60.09
48555;BME280;34336;48.270;16.716;2023-05-19T11:12:08;109325.25;;;18.16;62.95
48555;BME280;34336;48.270;16.716;2023-05-19T11:14:36;109325.25;;;18.16;60.73
48555;BME280;34336;48.270;16.716;2023-05-19T11:17:02;109325.25;;;18.16;60.43
48555;BME280;34336;48.270;16.716;2023-05-19T11:19:31;109325.25;;;18.16;58.59
48555;BME280;34336;48.270;16.716;2023-05-19T11:29:44;109325.25;;;18.16;60.97
48555;BME280;34336;48.270;16.716;2023-05-19T11:32:11;109325.25;;;18.16;59.97
48555;BME280;34336;48.270;16.716;2023-05-19T11:34:38;109325.25;;;18.16;61.10
48555;BME280;34336;48.270;16.716;2023-05-19T11:37:05;109325.25;;;18.16;58.03
48555;BME280;34336;48.270;16.716;2023-05-19T11:39:32;109325.25;;;18.16;60.11
48555;BME280;34336;48.270;16.716;2023-05-19T11:41:58;109325.25;;;18.16;58.91
48555;BME280;34336;48.270;16.716;2023-05-19T11:44:25;109325.25;;;18.16;58.46
48555;BME280;34336;48.270;16.716;2023-05-19T11:46:51;109325.25;;;18.16;58.38
48555;BME280;34336;48.270;16.716;2023-05-19T11:49:23;109325.25;;;18.16;58.59
48555;BME280;34336;48.270;16.716;2023-05-19T11:51:58;109325.25;;;18.16;59.65
48555;BME280;34336;48.270;16.716;2023-05-19T11:54:41;109325.25;;;18.16;60.37
48555;BME280;34336;48.270;16.716;2023-05-19T11:57:08;109325.25;;;18.16;58.39
48555;BME280;34336;48.270;16.716;2023-05-19T11:59:36;109325.25;;;18.16;57.27
48555;BME280;34336;48.270;16.716;2023-05-19T12:02:20;109325.25;;;18.16;61.19
48555;BME280;34336;48.270;16.716;2023-05-19T12:04:47;109325.25;;;18.16;60.97
48555;BME280;34336;48.270;16.716;2023-05-19T12:07:15;109325.25;;;18.16;60.81
48555;BME280;34336;48.270;16.716;2023-05-19T12:09:45;109325.25;;;18.16;60.71
48555;BME280;34336;48.270;16.716;2023-05-19T12:12:13;109325.25;;;18.16;61.39
48555;BME280;34336;48.270;16.716;2023-05-19T12:14:40;109325.25;;;18.16;61.12
48555;BME280;34336;48.270;16.716;2023-05-19T12:17:10;109325.25;;;18.16;60.49
48555;BME280;34336;48.270;16.716;2023-05-19T12:19:38;109325.25;;;18.16;61.04
48555;BME280;34336;48.270;16.716;2023-05-19T12:22:05;109325.25;;;18.16;59.56
48555;BME280;34336;48.270;16.716;2023-05-19T12:24:33;109325.25;;;18.16;56.82
48555;BME280;34336;48.270;16.716;2023-05-19T12:27:08;109325.25;;;18.16;55.98
48555;BME280;34336;48.270;16.716;2023-05-19T12:29:36;109325.25;;;18.16;60.33
48555;BME280;34336;48.270;16.716;2023-05-19T12:32:06;109325.25;;;18.16;57.99
48555;BME280;34336;48.270;16.716;2023-05-19T12:34:37;109325.25;;;18.16;57.93
48555;BME280;34336;48.270;16.716;2023-05-19T12:37:04;109325.25;;;18.16;58.94
48555;BME280;34336;48.270;16.716;2023-05-19T12:40:02;109325.25;;;18.16;55.42
48555;BME280;34336;48.270;16.716;2023-05-19T12:42:29;109325.25;;;18.16;57.27
48555;BME280;34336;48.270;16.716;2023-05-19T12:44:57;109325.25;;;18.16;59.16
48555;BME280;34336;48.270;16.716;2023-05-19T12:47:30;109325.25;;;18.16;58.56
48555;BME280;34336;48.270;16.716;2023-05-19T12:52:25;109325.25;;;18.16;58.65
48555;BME280;34336;48.270;16.716;2023-05-19T12:54:58;109325.25;;;18.16;58.04
48555;BME280;34336;48.270;16.716;2023-05-19T12:57:26;109325.25;;;18.16;58.36
48555;BME280;34336;48.270;16.716;2023-05-19T13:05:20;109325.25;;;18.16;57.96
48555;BME280;34336;48.270;16.716;2023-05-19T13:07:58;109325.25;;;18.16;57.62
48555;BME280;34336;48.270;16.716;2023-05-19T13:10:25;109325.25;;;18.16;57.62
48555;BME280;34336;48.270;16.716;2023-05-19T13:12:56;109325.25;;;18.16;57.03
48555;BME280;34336;48.270;16.716;2023-05-19T13:15:24;109325.25;;;18.16;55.03
48555;BME280;34336;48.270;16.716;2023-05-19T13:17:52;109325.25;;;18.16;58.78
48555;BME280;34336;48.270;16.716;2023-05-19T13:20:19;109325.25;;;18.16;57.79
48555;BME280;34336;48.270;16.716;2023-05-19T13:22:46;109325.25;;;18.16;58.67
48555;BME280;34336;48.270;16.716;2023-05-19T13:25:13;109325.25;;;18.16;59.94
48555;BME280;34336;48.270;16.716;2023-05-19T13:27:39;109325.25;;;18.16;59.73
48555;BME280;34336;48.270;16.716;2023-05-19T13:30:06;109325.25;;;18.16;59.73